Time;durP1;ratioP1;P1;durP2;ratioP2;P2;SDS_P1;SDS_P2;PMS_P1;PMS_P2;Temp;Humidity;BMP_temperature;BMP_pressure;BME280_temperature;BME280_humidity;BME280_pressure;Samples;Min_cycle;Max_cycle;Signal;HPM_P1;HPM_P2
2022/04/07 00:00:30;;;;;;;15.30;10.80;;;;;;;8.49;67.47;99421.08;1765382;77;21026;-67
2022/04/07 00:02:58;;;;;;;11.37;10.30;;;;;;;8.52;67.22;99414.06;1665806;85;21120;-67
2022/04/07 00:05:26;;;;;;;10.77;9.77;;;;;;;8.60;66.93;99407.23;1662964;85;21581;-67
2022/04/07 00:07:52;;;;;;;11.20;10.10;;;;;;;8.64;66.52;99404.48;1658083;86;21061;-69
2022/04/07 00:10:21;;;;;;;11.53;10.43;;;;;;;8.68;66.55;99407.58;1651431;86;21089;-69
2022/04/07 00:12:49;;;;;;;11.00;9.53;;;;;;;8.66;66.39;99418.39;1661091;85;21050;-68
2022/04/07 00:15:17;;;;;;;12.10;11.00;;;;;;;8.63;66.31;99410.84;1641299;85;21040;-67
2022/04/07 00:17:44;;;;;;;12.30;11.10;;;;;;;8.62;66.34;99407.05;1659025;85;21138;-67
2022/04/07 00:20:11;;;;;;;12.53;11.40;;;;;;;8.59;66.36;99402.96;1673590;84;21550;-67
2022/04/07 00:22:39;;;;;;;11.37;10.37;;;;;;;8.58;66.39;99401.30;1664733;84;21105;-67
2022/04/07 00:25:07;;;;;;;9.77;8.87;;;;;;;8.55;66.71;99401.69;1669905;84;21647;-67
2022/04/07 00:27:36;;;;;;;12.53;11.33;;;;;;;8.50;66.78;99393.00;1642577;86;21612;-66
2022/04/07 00:30:05;;;;;;;11.60;10.50;;;;;;;8.50;66.77;99389.53;1662748;85;21031;-69
2022/04/07 00:32:36;;;;;;;11.30;10.20;;;;;;;8.49;66.77;99390.54;1664140;84;21033;-67
2022/04/07 00:35:04;;;;;;;12.90;10.87;;;;;;;8.47;66.85;99397.89;1689775;84;21147;-67
2022/04/07 00:37:31;;;;;;;13.67;12.20;;;;;;;8.42;66.97;99392.34;1673847;85;21093;-68
2022/04/07 00:39:59;;;;;;;12.40;11.38;;;;;;;8.38;67.08;99390.55;1701189;83;21013;-68
2022/04/07 00:42:26;;;;;;;13.00;11.27;;;;;;;8.34;67.21;99391.97;1704063;83;21029;-68
2022/04/07 00:44:52;;;;;;;;;;;;;;;8.26;67.40;99388.97;1695861;83;21117;-67
2022/04/07 00:47:22;;;;;;;12.33;11.13;;;;;;;8.16;67.55;99383.22;1672440;85;20112;-67
2022/04/07 00:49:49;;;;;;;12.30;11.17;;;;;;;8.01;67.98;99390.48;1668427;84;21169;-67
2022/04/07 00:52:19;;;;;;;13.63;12.17;;;;;;;7.91;68.26;99382.36;1673120;84;21473;-68
2022/04/07 00:54:47;;;;;;;13.17;11.70;;;;;;;7.86;68.50;99381.30;1682290;84;21509;-68
2022/04/07 00:57:14;;;;;;;13.40;12.10;;;;;;;7.83;68.67;99379.83;1672990;84;21113;-68
2022/04/07 00:59:41;;;;;;;12.87;11.50;;;;;;;7.82;68.75;99381.34;1693526;83;21071;-68
2022/04/07 01:02:09;;;;;;;11.97;10.80;;;;;;;7.82;68.88;99379.53;1684797;83;21022;-68
2022/04/07 01:04:38;;;;;;;14.00;12.30;;;;;;;7.82;68.97;99374.71;1680517;83;21178;-69
2022/04/07 01:07:07;;;;;;;11.70;10.70;;;;;;;7.84;68.89;99376.70;1694374;83;21137;-68
2022/04/07 01:09:37;;;;;;;12.70;11.03;;;;;;;7.79;68.96;99370.63;1695564;83;21181;-67
2022/04/07 01:12:05;;;;;;;11.57;10.47;;;;;;;7.75;69.12;99379.98;1705018;82;21158;-68
2022/04/07 01:14:31;;;;;;;12.43;11.17;;;;;;;7.71;69.10;99376.91;1718880;83;21057;-68
2022/04/07 01:16:58;;;;;;;11.60;10.40;;;;;;;7.71;69.00;99378.74;1706098;82;21133;-68
2022/04/07 01:19:24;;;;;;;12.23;11.03;;;;;;;7.71;68.82;99372.92;1715644;82;21703;-68
2022/04/07 01:21:52;;;;;;;11.90;10.80;;;;;;;7.71;68.67;99377.42;1717361;82;21149;-68
2022/04/07 01:24:24;;;;;;;11.08;9.78;;;;;;;7.75;68.51;99370.70;1690619;83;21060;-68
2022/04/07 01:26:51;;;;;;;12.03;10.80;;;;;;;7.76;68.34;99365.70;1699581;84;21040;-68
2022/04/07 01:29:25;;;;;;;11.33;10.30;;;;;;;7.79;67.98;99363.99;1707448;84;21050;-67
2022/04/07 01:31:48;;;;;;;11.97;10.83;;;;;;;7.83;67.61;99353.30;1691351;82;21015;-68
2022/04/07 01:34:17;;;;;;;11.68;9.58;;;;;;;7.84;67.24;99349.65;1678900;83;21040;-68
2022/04/07 01:36:48;;;;;;;13.53;11.50;;;;;;;7.86;67.11;99352.92;1663005;85;21571;-68
2022/04/07 01:39:21;;;;;;;11.17;10.07;;;;;;;7.85;67.01;99349.94;1677976;83;21053;-68
2022/04/07 01:41:48;;;;;;;12.30;11.03;;;;;;;7.84;66.98;99364.75;1692399;83;21034;-68
2022/04/07 01:44:19;;;;;;;12.97;10.80;;;;;;;7.82;66.97;99353.48;1688054;83;21249;-68
2022/04/07 01:46:48;;;;;;;11.90;10.57;;;;;;;7.81;66.78;99346.05;1700920;83;21029;-68
2022/04/07 01:49:18;;;;;;;11.57;10.47;;;;;;;7.84;66.69;99350.97;1691367;83;21055;-67
2022/04/07 01:51:49;;;;;;;11.77;10.63;;;;;;;7.86;66.66;99348.13;1704979;83;21073;-68
2022/04/07 01:54:16;;;;;;;10.93;9.90;;;;;;;7.82;66.66;99355.66;1699730;83;21744;-68
2022/04/07 01:56:45;;;;;;;11.23;10.13;;;;;;;7.79;66.71;99348.08;1629521;86;21744;-67
2022/04/07 01:59:14;;;;;;;12.13;10.80;;;;;;;7.75;66.89;99353.46;1641329;86;21137;-67
2022/04/07 02:01:42;;;;;;;12.07;10.80;;;;;;;7.72;66.95;99351.19;1657828;83;21057;-66
2022/04/07 02:04:08;;;;;;;11.78;10.58;;;;;;;7.67;67.06;99351.78;1674473;83;21073;-67
2022/04/07 02:06:35;;;;;;;11.50;10.33;;;;;;;7.64;66.98;99345.53;1700458;82;21045;-67
2022/04/07 02:09:02;;;;;;;11.48;10.28;;;;;;;7.63;67.13;99344.39;1700715;82;21145;-67
2022/04/07 02:11:32;;;;;;;9.63;8.77;;;;;;;7.61;67.16;99348.58;1704365;82;21082;-68
2022/04/07 02:13:58;;;;;;;12.10;10.83;;;;;;;7.58;67.18;99351.09;1722698;82;21120;-67
2022/04/07 02:16:24;;;;;;;11.20;10.03;;;;;;;7.55;66.89;99343.55;1718994;82;21109;-67
2022/04/07 02:18:51;;;;;;;10.68;9.55;;;;;;;7.57;66.94;99352.61;1726635;82;21042;-69
2022/04/07 02:21:17;;;;;;;11.10;9.90;;;;;;;7.53;67.06;99353.50;1721386;82;21018;-68
2022/04/07 02:23:44;;;;;;;12.67;10.50;;;;;;;7.51;67.15;99360.02;1700634;83;21018;-68
2022/04/07 02:26:16;;;;;;;;;;;;;;;7.45;67.17;99357.62;1686049;83;21006;-68
2022/04/07 02:28:43;;;;;;;13.23;9.83;;;;;;;7.41;67.29;99347.91;1692798;83;20122;-68
2022/04/07 02:31:11;;;;;;;12.57;11.13;;;;;;;7.34;67.35;99342.24;1704271;83;21576;-68
2022/04/07 02:33:38;;;;;;;12.97;9.57;;;;;;;7.33;67.47;99340.63;1697737;83;21085;-67
2022/04/07 02:36:08;;;;;;;12.37;9.97;;;;;;;7.14;67.54;99328.33;1686400;84;21177;-69
2022/04/07 02:38:37;;;;;;;12.47;10.77;;;;;;;7.29;67.27;99346.80;1681827;84;21115;-67
2022/04/07 02:41:04;;;;;;;13.17;10.40;;;;;;;7.30;67.26;99344.45;1677815;84;21058;-68
2022/04/07 02:43:31;;;;;;;11.23;9.73;;;;;;;7.29;67.19;99344.16;1674137;85;21018;-68
2022/04/07 02:45:58;;;;;;;12.20;10.63;;;;;;;7.31;67.14;99343.94;1673025;84;22223;-69
2022/04/07 02:48:24;;;;;;;13.30;10.10;;;;;;;7.30;67.12;99337.83;1667212;84;21054;-69
2022/04/07 02:50:51;;;;;;;11.20;10.17;;;;;;;7.31;67.14;99340.80;1672257;84;21078;-69
2022/04/07 02:53:19;;;;;;;10.73;9.53;;;;;;;7.32;67.11;99345.59;1676708;84;21038;-67
2022/04/07 02:55:47;;;;;;;12.00;10.85;;;;;;;7.31;67.07;99339.48;1676255;84;21101;-67
2022/04/07 02:58:15;;;;;;;12.03;10.73;;;;;;;7.31;66.80;99337.31;1680704;84;21593;-67
2022/04/07 03:00:41;;;;;;;;;;;;;;;7.28;66.72;99341.17;1670827;84;21046;-68
2022/04/07 03:03:08;;;;;;;11.30;10.10;;;;;;;7.21;66.93;99339.81;1674502;84;20166;-68
2022/04/07 03:05:35;;;;;;;11.97;10.13;;;;;;;7.11;67.22;99346.44;1689213;84;21097;-68
2022/04/07 03:08:01;;;;;;;12.98;11.60;;;;;;;7.07;67.22;99350.48;1690179;84;21188;-68
2022/04/07 03:10:31;;;;;;;12.23;10.97;;;;;;;7.02;67.31;99343.08;1674320;84;21638;-67
2022/04/07 03:12:57;;;;;;;11.77;10.33;;;;;;;6.98;67.44;99340.50;1693087;83;21071;-65
2022/04/07 03:15:24;;;;;;;11.17;9.13;;;;;;;6.98;67.44;99344.48;1699539;83;21053;-67
2022/04/07 03:17:50;;;;;;;12.10;11.00;;;;;;;6.99;67.47;99344.80;1677093;83;21075;-67
2022/04/07 03:20:17;;;;;;;10.80;9.70;;;;;;;7.01;67.34;99340.13;1695820;83;21087;-70
2022/04/07 03:22:46;;;;;;;11.60;10.43;;;;;;;7.04;67.29;99342.39;1679804;83;21070;-68
2022/04/07 03:25:13;;;;;;;11.33;10.13;;;;;;;7.00;67.20;99335.31;1697225;82;21080;-69
2022/04/07 03:27:41;;;;;;;13.33;11.20;;;;;;;7.01;67.22;99334.84;1693974;82;21051;-68
2022/04/07 03:30:10;;;;;;;20.37;11.70;;;;;;;7.00;67.25;99343.27;1689629;82;21044;-68
2022/04/07 03:32:36;;;;;;;11.20;10.10;;;;;;;6.97;67.25;99345.50;1700832;82;21019;-67
2022/04/07 03:35:04;;;;;;;14.67;11.13;;;;;;;6.93;67.41;99340.24;1700842;82;21026;-68
2022/04/07 03:37:32;;;;;;;14.13;10.17;;;;;;;6.99;67.30;99344.80;1720435;82;21108;-68
2022/04/07 03:40:04;;;;;;;14.60;11.37;;;;;;;7.05;67.15;99351.17;1725731;82;21767;-69
2022/04/07 03:42:32;;;;;;;12.37;11.10;;;;;;;7.07;66.92;99342.02;1715660;82;21046;-69
2022/04/07 03:44:58;;;;;;;10.97;9.90;;;;;;;7.13;66.92;99339.11;1713890;81;21037;-68
2022/04/07 03:47:26;;;;;;;11.43;9.90;;;;;;;7.17;66.81;99338.53;1734435;81;21010;-69
2022/04/07 03:49:53;;;;;;;13.10;10.53;;;;;;;7.25;66.57;99334.92;1731151;81;21038;-67
2022/04/07 03:52:19;;;;;;;11.90;10.70;;;;;;;7.32;66.09;99340.29;1729067;81;21014;-69
2022/04/07 03:54:47;;;;;;;12.82;11.53;;;;;;;7.37;65.77;99336.57;1717173;82;21137;-68
2022/04/07 03:57:14;;;;;;;15.70;12.23;;;;;;;7.49;65.58;99332.36;1695446;80;21070;-67
2022/04/07 03:59:42;;;;;;;16.07;11.15;;;;;;;7.77;64.83;99337.66;1704337;82;21073;-67
2022/04/07 04:02:10;;;;;;;13.73;10.97;;;;;;;8.11;64.24;99329.89;1677978;83;21138;-68
2022/04/07 04:04:37;;;;;;;16.83;12.00;;;;;;;8.37;62.42;99323.36;1673239;84;20979;-68
2022/04/07 04:07:04;;;;;;;12.30;10.68;;;;;;;8.48;61.67;99331.30;1673056;84;21101;-68
2022/04/07 04:09:33;;;;;;;12.77;11.43;;;;;;;8.62;61.36;99326.03;1675831;83;21088;-69
2022/04/07 04:12:00;;;;;;;11.87;10.57;;;;;;;8.88;60.75;99326.59;1657436;83;21033;-68
2022/04/07 04:14:26;;;;;;;13.10;11.30;;;;;;;9.23;59.77;99332.57;1692790;83;21146;-68
2022/04/07 04:16:54;;;;;;;12.27;10.93;;;;;;;9.62;58.59;99334.08;1662103;85;21590;-68
2022/04/07 04:19:21;;;;;;;10.70;9.70;;;;;;;10.05;57.13;99321.60;1691649;83;21570;-68
2022/04/07 04:21:50;;;;;;;15.93;11.33;;;;;;;10.66;55.44;99330.50;1690047;83;21040;-68
2022/04/07 04:24:17;;;;;;;12.83;11.17;;;;;;;11.18;53.72;99333.02;1679327;83;21036;-69
2022/04/07 04:26:44;;;;;;;12.07;10.37;;;;;;;11.49;51.95;99322.82;1617662;86;21066;-68
2022/04/07 04:29:10;;;;;;;11.57;10.38;;;;;;;11.87;51.70;99324.50;1631763;86;21113;-68
2022/04/07 04:31:37;;;;;;;14.07;10.45;;;;;;;12.33;50.26;99314.87;1685826;83;21564;-68
2022/04/07 04:34:04;;;;;;;13.20;10.48;;;;;;;12.72;49.84;99314.06;1689909;83;21068;-67
2022/04/07 04:36:30;;;;;;;11.85;10.55;;;;;;;13.09;48.99;99313.91;1686659;83;21025;-68
2022/04/07 04:38:56;;;;;;;13.65;10.78;;;;;;;13.38;47.18;99303.69;1675849;83;21044;-68
2022/04/07 04:41:24;;;;;;;10.23;9.23;;;;;;;13.46;46.79;99307.88;1691657;83;21552;-68
2022/04/07 04:43:54;;;;;;;11.43;10.28;;;;;;;13.30;46.68;99320.11;1690826;83;21588;-70
2022/04/07 04:46:21;;;;;;;11.18;10.10;;;;;;;12.92;47.33;99315.09;1674803;82;21644;-67
2022/04/07 04:48:48;;;;;;;11.15;10.10;;;;;;;12.65;48.20;99325.64;1677692;84;21600;-68
2022/04/07 04:51:14;;;;;;;11.28;10.08;;;;;;;12.51;48.31;99325.55;1665511;84;21124;-67
2022/04/07 04:53:41;;;;;;;11.38;10.20;;;;;;;12.52;48.53;99332.50;1672477;84;21097;-67
2022/04/07 04:56:07;;;;;;;11.40;10.30;;;;;;;12.62;48.54;99330.13;1676927;84;21140;-69
2022/04/07 04:58:33;;;;;;;;;;;;;;;12.88;47.91;99321.95;1682416;84;21100;-67
2022/04/07 05:01:00;;;;;;;11.18;10.05;;;;;;;12.79;47.58;99327.63;1675355;84;20134;-68
2022/04/07 05:03:26;;;;;;;;;;;;;;;12.51;48.32;99330.89;1672452;84;21042;-68
2022/04/07 05:05:54;;;;;;;12.00;10.30;;;;;;;12.44;48.47;99332.83;1668914;84;20141;-68
2022/04/07 05:08:22;;;;;;;11.97;10.77;;;;;;;12.35;48.92;99334.17;1669001;84;21050;-67
2022/04/07 05:10:48;;;;;;;10.93;9.95;;;;;;;12.25;48.85;99336.04;1676454;84;21061;-68
2022/04/07 05:13:16;;;;;;;13.40;11.03;;;;;;;12.13;49.34;99337.31;1694233;83;21961;-67
2022/04/07 05:15:43;;;;;;;11.57;10.35;;;;;;;12.10;49.43;99336.41;1696185;83;21116;-67
2022/04/07 05:18:10;;;;;;;11.80;10.63;;;;;;;12.02;49.56;99334.86;1698514;83;21546;-69
2022/04/07 05:20:37;;;;;;;10.60;9.60;;;;;;;12.08;49.40;99334.48;1639687;86;21148;-69
2022/04/07 05:23:05;;;;;;;10.67;9.67;;;;;;;11.99;49.47;99335.29;1694541;82;21586;-67
2022/04/07 05:25:32;;;;;;;11.93;10.32;;;;;;;12.04;49.49;99333.30;1708643;82;21027;-69
2022/04/07 05:27:59;;;;;;;11.20;10.00;;;;;;;12.18;49.13;99333.44;1704215;82;21125;-69
2022/04/07 05:30:26;;;;;;;;;;;;;;;12.42;48.85;99322.36;1700387;82;21101;-68
2022/04/07 05:32:53;;;;;;;11.97;9.70;;;;;;;12.63;48.06;99322.39;1698376;83;20468;-68
2022/04/07 05:35:20;;;;;;;14.03;10.60;;;;;;;12.83;47.95;99310.08;1725392;80;21138;-69
2022/04/07 05:37:46;;;;;;;12.87;10.33;;;;;;;13.13;46.93;99312.41;1746989;80;21091;-67
2022/04/07 05:40:13;;;;;;;;;;;;;;;13.17;46.65;99305.58;1747059;80;20997;-69
2022/04/07 05:42:41;;;;;;;11.48;10.35;;;;;;;13.17;46.61;99301.03;1734454;80;20172;-67
2022/04/07 05:45:09;;;;;;;10.97;9.50;;;;;;;12.88;47.19;99304.03;1741940;80;21238;-66
2022/04/07 05:47:40;;;;;;;10.03;9.07;;;;;;;12.83;47.37;99312.76;1747961;80;21145;-67
2022/04/07 05:50:11;;;;;;;12.30;8.95;;;;;;;12.95;47.41;99308.77;1732628;80;21597;-67
2022/04/07 05:52:38;;;;;;;10.38;9.35;;;;;;;13.39;46.62;99308.52;1725295;80;21194;-68
2022/04/07 05:55:07;;;;;;;11.08;9.78;;;;;;;13.75;45.39;99311.50;1748282;80;21529;-65
2022/04/07 05:57:34;;;;;;;10.63;9.53;;;;;;;13.77;45.18;99309.40;1739913;80;21046;-66
2022/04/07 06:00:06;;;;;;;;;;;;;;;13.85;45.38;99314.12;1719845;80;21155;-67
2022/04/07 06:02:34;;;;;;;10.43;9.35;;;;;;;13.96;45.34;99324.00;1732660;80;20154;-70
2022/04/07 06:05:02;;;;;;;9.33;8.53;;;;;;;14.10;44.94;99314.64;1736353;80;21652;-69
2022/04/07 06:07:28;;;;;;;9.78;8.83;;;;;;;14.10;45.08;99306.59;1728974;80;21073;-68
2022/04/07 06:09:55;;;;;;;10.13;9.08;;;;;;;14.04;45.05;99316.13;1735587;80;21060;-68
2022/04/07 06:12:21;;;;;;;10.68;9.58;;;;;;;14.09;45.29;99315.70;1731469;81;21403;-70
2022/04/07 06:14:49;;;;;;;9.95;9.05;;;;;;;14.36;44.69;99311.95;1738030;80;21537;-69
2022/04/07 06:17:15;;;;;;;;;;;;;;;14.58;44.31;99314.83;1759668;80;22028;-71
2022/04/07 06:19:43;;;;;;;10.45;9.28;;;;;;;14.67;43.90;99317.11;1740163;80;20420;-72
2022/04/07 06:22:12;;;;;;;10.28;8.13;;;;;;;14.43;44.49;99315.84;1729716;80;21145;-71
2022/04/07 06:24:38;;;;;;;10.70;9.53;;;;;;;14.19;45.03;99315.09;1672168;83;21609;-67
2022/04/07 06:27:05;;;;;;;8.93;8.10;;;;;;;14.27;45.62;99319.27;1679945;83;21616;-68
2022/04/07 06:29:31;;;;;;;;;;;;;;;14.44;44.66;99309.95;1671322;83;21042;-70
2022/04/07 06:31:59;;;;;;;8.90;8.00;;;;;;;14.53;44.80;99307.18;1666916;83;20198;-68
2022/04/07 06:34:25;;;;;;;9.13;8.38;;;;;;;14.48;44.96;99309.22;1660909;84;21094;-70
2022/04/07 06:36:53;;;;;;;10.88;7.62;;;;;;;14.42;45.15;99314.20;1644450;86;21567;-69
2022/04/07 06:39:19;;;;;;;8.28;7.37;;;;;;;14.50;45.76;99305.77;1651651;85;21077;-71
2022/04/07 06:41:46;;;;;;;8.43;6.87;;;;;;;14.98;44.53;99299.16;1646228;86;21595;-69
2022/04/07 06:44:14;;;;;;;;;;;;;;;15.20;43.65;99307.85;1661122;85;21127;-68
2022/04/07 06:46:40;;;;;;;7.92;7.12;;;;;;;15.04;44.31;99307.31;1661216;85;21047;-68
2022/04/07 06:49:08;;;;;;;7.50;6.67;;;;;;;14.82;44.93;99307.19;1654196;85;21074;-68
2022/04/07 06:51:34;;;;;;;;;;;;;;;14.85;44.56;99304.84;1658642;85;21110;-68
2022/04/07 06:54:02;;;;;;;6.97;6.37;;;;;;;15.02;44.90;99304.05;1661386;85;20190;-69
2022/04/07 06:56:29;;;;;;;7.12;6.53;;;;;;;15.14;45.21;99303.44;1657615;85;20974;-71
2022/04/07 06:58:55;;;;;;;;;;;;;;;15.08;44.51;99307.91;1659999;85;21172;-71
2022/04/07 07:01:22;;;;;;;6.95;6.25;;;;;;;14.90;44.79;99301.42;1664544;84;20157;-70
2022/04/07 07:03:49;;;;;;;6.92;6.42;;;;;;;14.66;45.68;99301.55;1663482;84;21174;-71
2022/04/07 07:06:16;;;;;;;14.07;8.23;;;;;;;14.44;46.60;99300.03;1708421;83;21081;-69
2022/04/07 07:08:42;;;;;;;8.78;7.20;;;;;;;14.29;46.85;99295.19;1708295;83;22299;-69
2022/04/07 07:11:11;;;;;;;7.72;6.92;;;;;;;14.17;47.48;99288.53;1709611;83;21058;-70
2022/04/07 07:13:39;;;;;;;9.20;7.03;;;;;;;14.03;47.88;99291.17;1706636;82;21042;-72
2022/04/07 07:16:06;;;;;;;6.62;6.03;;;;;;;13.93;48.20;99292.31;1714869;82;21050;-70
2022/04/07 07:18:32;;;;;;;11.08;6.45;;;;;;;13.97;48.47;99286.77;1704322;82;21042;-70
2022/04/07 07:21:01;;;;;;;6.72;6.12;;;;;;;14.10;48.45;99283.83;1708557;82;21046;-70
2022/04/07 07:23:28;;;;;;;7.12;6.33;;;;;;;14.18;48.41;99278.61;1692857;83;21044;-71
2022/04/07 07:25:56;;;;;;;6.95;5.87;;;;;;;14.14;48.50;99272.91;1681130;84;21113;-69
2022/04/07 07:28:24;;;;;;;7.10;6.08;;;;;;;14.10;48.88;99267.75;1680641;84;21080;-70
2022/04/07 07:30:52;;;;;;;6.12;5.53;;;;;;;14.15;48.77;99266.52;1640384;85;21623;-70
2022/04/07 07:33:19;;;;;;;6.22;5.62;;;;;;;14.17;48.49;99272.98;1687135;84;21600;-69
2022/04/07 07:35:46;;;;;;;5.45;5.00;;;;;;;14.14;48.87;99268.09;1674911;83;21073;-69
2022/04/07 07:38:12;;;;;;;6.33;5.70;;;;;;;14.20;48.84;99259.92;1669310;83;21100;-70
2022/04/07 07:40:40;;;;;;;6.08;5.00;;;;;;;14.37;48.59;99264.50;1672452;83;21659;-72
2022/04/07 07:43:07;;;;;;;4.85;4.53;;;;;;;14.57;48.23;99262.77;1672938;83;21623;-70
2022/04/07 07:45:35;;;;;;;6.70;5.42;;;;;;;14.72;48.02;99258.20;1704407;82;21153;-71
2022/04/07 07:48:04;;;;;;;7.22;5.08;;;;;;;14.81;47.51;99254.61;1714864;82;21046;-71
2022/04/07 07:50:30;;;;;;;5.72;5.22;;;;;;;14.90;47.52;99251.28;1717786;82;22316;-69
2022/04/07 07:52:57;;;;;;;;;;;;;;;14.98;47.38;99253.55;1721193;82;21501;-70
2022/04/07 07:55:23;;;;;;;5.65;5.15;;;;;;;15.07;46.95;99242.39;1706497;82;20208;-70
2022/04/07 07:57:50;;;;;;;4.75;4.35;;;;;;;15.12;47.38;99246.51;1711445;82;21524;-70
2022/04/07 08:00:17;;;;;;;5.72;4.45;;;;;;;15.26;46.89;99241.09;1685204;85;21043;-68
2022/04/07 08:02:44;;;;;;;9.45;4.00;;;;;;;15.32;45.76;99224.00;1721335;82;21053;-72
2022/04/07 08:05:11;;;;;;;4.65;4.40;;;;;;;15.42;46.14;99234.60;1721912;82;21359;-71
2022/04/07 08:07:41;;;;;;;5.33;4.92;;;;;;;15.38;45.77;99212.27;1721978;81;21089;-71
2022/04/07 08:10:11;;;;;;;3.77;3.45;;;;;;;15.52;45.80;99223.98;1689946;84;21530;-71
2022/04/07 08:12:40;;;;;;;5.35;4.70;;;;;;;15.57;45.73;99216.01;1722232;82;21089;-71
2022/04/07 08:15:09;;;;;;;4.47;3.85;;;;;;;15.66;45.59;99211.83;1720212;83;21045;-71
2022/04/07 08:17:37;;;;;;;4.87;4.22;;;;;;;15.77;44.89;99203.41;1725625;81;21088;-71
2022/04/07 08:20:07;;;;;;;4.10;3.80;;;;;;;15.87;44.97;99205.41;1725499;81;21069;-70
2022/04/07 08:22:34;;;;;;;4.92;4.08;;;;;;;15.96;44.67;99203.36;1724575;81;21296;-71
2022/04/07 08:25:01;;;;;;;5.17;3.65;;;;;;;16.01;44.46;99203.97;1712230;81;21555;-71
2022/04/07 08:27:30;;;;;;;3.90;3.60;;;;;;;16.06;44.25;99190.56;1720724;81;21540;-71
2022/04/07 08:29:56;;;;;;;3.47;3.17;;;;;;;16.14;44.19;99192.82;1713657;81;21074;-70
2022/04/07 08:32:23;;;;;;;3.95;3.65;;;;;;;16.25;43.76;99187.53;1724237;81;21151;-70
2022/04/07 08:34:50;;;;;;;4.70;4.17;;;;;;;16.37;43.78;99180.14;1724251;81;21137;-70
2022/04/07 08:37:16;;;;;;;2.98;2.70;;;;;;;16.38;43.10;99197.88;1726623;81;21070;-70
2022/04/07 08:39:45;;;;;;;3.40;3.20;;;;;;;16.35;42.98;99170.98;1717461;81;21316;-71
2022/04/07 08:42:12;;;;;;;2.62;2.42;;;;;;;16.37;42.92;99172.07;1685883;83;21070;-73
2022/04/07 08:44:38;;;;;;;2.90;2.72;;;;;;;16.39;42.85;99171.79;1691402;83;21114;-71
2022/04/07 08:47:05;;;;;;;2.58;2.37;;;;;;;16.38;42.69;99161.58;1668036;84;21188;-71
2022/04/07 08:49:34;;;;;;;3.33;3.02;;;;;;;16.38;43.04;99165.61;1668239;84;21608;-71
2022/04/07 08:52:02;;;;;;;2.83;2.62;;;;;;;16.45;42.96;99158.69;1661636;85;21109;-71
2022/04/07 08:54:31;;;;;;;4.03;2.62;;;;;;;16.55;42.78;99162.25;1669958;85;20981;-71
2022/04/07 08:56:59;;;;;;;4.50;4.10;;;;;;;16.66;42.72;99166.39;1718237;81;21503;-71
2022/04/07 08:59:26;;;;;;;5.00;4.08;;;;;;;16.72;43.03;99166.70;1727293;81;21570;-71
2022/04/07 09:02:04;;;;;;;6.30;4.37;;;;;;;16.71;43.28;99160.52;1664915;84;21414;-70
2022/04/07 09:04:36;;;;;;;4.08;3.65;;;;;;;16.72;43.41;99145.98;1646050;86;21639;-72
2022/04/07 09:07:04;;;;;;;6.75;4.75;;;;;;;16.81;42.96;99152.25;1663410;85;21098;-70
2022/04/07 09:09:36;;;;;;;4.55;4.15;;;;;;;16.82;42.81;99149.81;1659239;85;21064;-71
2022/04/07 09:12:05;;;;;;;5.50;3.25;;;;;;;16.87;42.71;99137.78;1661199;85;21070;-71
2022/04/07 09:14:35;;;;;;;4.72;2.98;;;;;;;16.98;42.06;99133.28;1663953;85;21668;-72
2022/04/07 09:17:05;;;;;;;2.75;2.55;;;;;;;17.04;41.10;99130.34;1661707;85;21043;-70
2022/04/07 09:19:34;;;;;;;1.90;1.80;;;;;;;17.10;40.84;99125.80;1665895;85;21082;-72
2022/04/07 09:22:09;;;;;;;5.50;1.75;;;;;;;17.20;40.41;99129.11;1666078;85;21093;-72
2022/04/07 09:24:37;;;;;;;1.45;1.30;;;;;;;17.27;40.15;99112.98;1654891;85;21073;-70
2022/04/07 09:27:08;;;;;;;3.42;1.20;;;;;;;17.39;40.12;99121.39;1666525;85;22254;-69
2022/04/07 09:29:43;;;;;;;1.35;1.20;;;;;;;17.53;39.37;99097.45;1647052;85;21097;-70
2022/04/07 09:32:22;;;;;;;1.30;1.20;;;;;;;17.60;39.58;99098.83;1641206;86;21137;-71
2022/04/07 09:35:00;;;;;;;2.08;1.60;;;;;;;17.77;38.91;99090.52;1652564;85;21025;-71
2022/04/07 09:37:30;;;;;;;1.95;1.80;;;;;;;17.87;38.49;99099.19;1647922;85;21391;-71
2022/04/07 09:40:07;;;;;;;1.95;1.75;;;;;;;17.90;38.72;99086.53;1645638;86;21079;-69
2022/04/07 09:42:34;;;;;;;3.72;2.47;;;;;;;17.96;38.92;99085.45;1629982;86;21019;-71
2022/04/07 09:45:04;;;;;;;2.67;2.22;;;;;;;18.00;39.06;99075.75;1648001;85;21078;-72
2022/04/07 09:47:45;;;;;;;2.33;2.08;;;;;;;18.04;39.17;99066.59;1646755;85;21502;-71
2022/04/07 09:50:22;;;;;;;2.75;2.55;;;;;;;18.10;38.89;99069.55;1648754;85;21553;-71
2022/04/07 09:53:03;;;;;;;4.83;2.08;;;;;;;18.15;37.88;99060.12;1639670;85;21075;-70
2022/04/07 09:55:40;;;;;;;3.83;1.80;;;;;;;18.23;37.53;99050.17;1641001;85;21110;-72
2022/04/07 09:58:11;;;;;;;3.10;1.30;;;;;;;18.26;36.80;99050.16;1613693;87;22532;-71
2022/04/07 10:00:41;;;;;;;1.57;1.47;;;;;;;18.28;36.76;99042.60;1627009;84;22230;-72
2022/04/07 10:03:08;;;;;;;1.80;1.70;;;;;;;18.47;36.14;99042.85;1705116;82;21098;-73
2022/04/07 10:05:37;;;;;;;4.20;1.70;;;;;;;18.47;36.14;99042.85;1705240;82;21042;-74
2022/04/07 10:08:08;;;;;;;4.47;2.58;;;;;;;18.57;35.63;99036.11;1704811;82;21090;-73
2022/04/07 10:10:37;;;;;;;2.45;2.25;;;;;;;18.63;35.82;99028.81;1702591;82;21092;-71
2022/04/07 10:13:06;;;;;;;4.83;3.02;;;;;;;18.68;36.17;99012.58;1699345;82;21056;-73
2022/04/07 10:15:38;;;;;;;3.10;2.65;;;;;;;18.73;36.18;99020.67;1704536;82;21019;-73
2022/04/07 10:18:13;;;;;;;2.20;2.05;;;;;;;18.73;36.61;99015.28;1705519;82;20969;-74
2022/04/07 10:20:45;;;;;;;3.00;2.65;;;;;;;18.81;36.84;99008.53;1697073;84;21246;-70
2022/04/07 10:23:41;;;;;;;5.78;3.85;;;;;;;18.89;36.41;98991.76;1702540;82;21116;-72
2022/04/07 10:26:11;;;;;;;4.42;4.05;;;;;;;18.91;35.74;99001.77;1697925;83;21046;-78
2022/04/07 10:28:38;;;;;;;4.30;3.90;;;;;;;18.75;35.71;98990.72;1692413;83;21049;-70
2022/04/07 10:31:15;;;;;;;4.97;3.70;;;;;;;18.68;35.83;98983.73;1696051;83;21587;-72
2022/04/07 10:33:47;;;;;;;6.40;4.15;;;;;;;18.63;35.79;98993.73;1691731;83;21014;-79
2022/04/07 10:36:23;;;;;;;4.53;4.12;;;;;;;18.58;35.84;98986.98;1692368;83;21035;-80
2022/04/07 10:38:52;;;;;;;3.90;3.70;;;;;;;18.48;35.99;98991.88;1690401;83;20996;-73
2022/04/07 10:41:43;;;;;;;5.42;3.75;;;;;;;18.42;36.20;98985.67;1696584;83;21053;-75
2022/04/07 10:44:16;;;;;;;5.08;4.62;;;;;;;18.47;36.65;98974.05;1697021;83;21194;-74
2022/04/07 10:46:43;;;;;;;6.12;4.40;;;;;;;18.57;36.36;98962.42;1657413;84;21101;-74
2022/04/07 10:49:24;;;;;;;6.42;5.05;;;;;;;18.67;36.24;98962.41;1690643;83;21046;-73
2022/04/07 10:51:56;;;;;;;4.08;3.87;;;;;;;18.72;36.06;98955.62;1689540;83;21065;-67
2022/04/07 10:54:26;;;;;;;5.05;3.92;;;;;;;18.70;35.48;98970.48;1656126;85;21052;-76
2022/04/07 10:56:56;;;;;;;6.15;4.22;;;;;;;18.64;36.25;98956.20;1695561;83;21065;-79
2022/04/07 10:59:28;;;;;;;3.75;3.50;;;;;;;18.61;35.20;98954.03;1651573;85;21084;-75
2022/04/07 11:02:02;;;;;;;4.83;4.15;;;;;;;18.55;35.71;98960.54;1651667;85;21018;-73
2022/04/07 11:04:37;;;;;;;10.88;4.97;;;;;;;18.59;35.93;98957.03;1683493;83;21094;-66
2022/04/07 11:07:14;;;;;;;4.80;4.50;;;;;;;18.69;35.25;98953.48;1694252;83;21165;-76
2022/04/07 11:09:57;;;;;;;5.22;4.75;;;;;;;18.69;35.09;98946.73;1647023;85;21044;-72
2022/04/07 11:12:40;;;;;;;4.25;3.95;;;;;;;18.68;35.46;98941.06;1689837;83;21164;-75
2022/04/07 11:15:17;;;;;;;4.75;3.98;;;;;;;18.71;35.10;98947.27;1693257;83;21153;-76
2022/04/07 11:17:48;;;;;;;5.05;4.65;;;;;;;18.74;34.64;98941.85;1623265;86;21101;-75
2022/04/07 11:20:25;;;;;;;4.90;4.50;;;;;;;18.77;34.76;98928.61;1686360;83;21046;-74
2022/04/07 11:23:07;;;;;;;4.83;4.33;;;;;;;18.76;34.75;98939.16;1653019;85;21544;-74
2022/04/07 11:25:40;;;;;;;6.50;3.67;;;;;;;18.75;34.67;98907.84;1686108;83;21022;-75
2022/04/07 11:28:15;;;;;;;4.10;3.72;;;;;;;18.81;34.53;98932.40;1657215;85;21097;-76
2022/04/07 11:30:47;;;;;;;4.67;3.77;;;;;;;18.80;34.56;98933.50;1656253;85;21592;-75
2022/04/07 11:33:26;;;;;;;5.78;3.33;;;;;;;18.82;34.43;98939.42;1651926;85;21104;-75
2022/04/07 11:36:07;;;;;;;6.00;4.35;;;;;;;18.80;34.53;98933.50;1653395;85;21462;-71
2022/04/07 11:38:40;;;;;;;4.87;3.80;;;;;;;18.84;34.34;98922.41;1688553;83;21108;-71